createdAt,value
2018-06-13T00:01:34.532Z,18.91
2018-06-13T00:04:02.970Z,18.89
2018-06-13T00:06:31.474Z,18.86
2018-06-13T00:09:00.330Z,18.81
2018-06-13T00:11:51.416Z,18.80
2018-06-13T00:14:19.758Z,18.78
2018-06-13T00:16:48.608Z,18.74
2018-06-13T00:19:16.922Z,18.73
2018-06-13T00:21:45.424Z,18.69
2018-06-13T00:24:14.513Z,18.67
2018-06-13T00:26:43.200Z,18.67
2018-06-13T00:29:11.736Z,18.61
2018-06-13T00:31:40.932Z,18.56
2018-06-13T00:34:11.092Z,18.51
2018-06-13T00:36:39.552Z,18.50
2018-06-13T00:39:07.886Z,18.45
2018-06-13T00:41:40.724Z,18.39
2018-06-13T00:44:09.482Z,18.39
2018-06-13T00:46:38.456Z,18.36
2018-06-13T00:49:07.278Z,18.37
2018-06-13T00:57:21.132Z,18.36
2018-06-13T01:00:08.884Z,18.34
2018-06-13T01:02:37.642Z,18.33
2018-06-13T01:05:06.461Z,18.30
2018-06-13T01:07:35.728Z,18.29
2018-06-13T01:10:04.732Z,18.28
2018-06-13T01:12:33.484Z,18.28
2018-06-13T01:15:03.248Z,18.32
2018-06-13T01:17:32.192Z,18.33
2018-06-13T01:20:03.908Z,18.27
2018-06-13T01:22:34.226Z,18.21
2018-06-13T01:25:08.532Z,18.21
2018-06-13T01:27:37.801Z,18.23
2018-06-13T01:32:59.194Z,18.23
2018-06-13T01:35:29.818Z,18.16
2018-06-13T01:37:59.817Z,18.09
2018-06-13T01:43:21.190Z,17.95
2018-06-13T01:45:50.943Z,17.98
2018-06-13T01:48:20.042Z,17.94
2018-06-13T01:50:57.605Z,17.89
2018-06-13T01:53:28.251Z,17.80
2018-06-13T01:55:59.287Z,17.81
2018-06-13T01:58:31.036Z,17.81
2018-06-13T02:01:10.731Z,17.77
2018-06-13T02:03:41.292Z,17.69
2018-06-13T02:06:11.687Z,17.56
2018-06-13T02:08:42.225Z,17.52
2018-06-13T02:11:18.473Z,17.50
2018-06-13T02:13:48.262Z,17.55
2018-06-13T02:16:16.992Z,17.47
2018-06-13T02:18:46.605Z,17.34
2018-06-13T02:21:17.536Z,17.32
2018-06-13T02:23:54.198Z,17.30
2018-06-13T02:26:23.874Z,17.30
2018-06-13T02:28:53.498Z,17.27
2018-06-13T02:31:45.551Z,17.28
2018-06-13T02:34:14.996Z,17.21
2018-06-13T02:36:43.963Z,17.26
2018-06-13T02:39:12.679Z,17.25
2018-06-13T02:41:41.738Z,17.25
2018-06-13T02:44:11.054Z,17.21
2018-06-13T02:46:40.106Z,17.23
2018-06-13T02:49:09.926Z,17.18
2018-06-13T02:51:44.483Z,17.13
2018-06-13T02:54:13.958Z,17.08
2018-06-13T02:56:43.192Z,17.15
2018-06-13T02:59:14.415Z,17.18
2018-06-13T03:01:43.215Z,17.16
2018-06-13T03:04:13.268Z,17.19
2018-06-13T03:06:42.619Z,17.17
2018-06-13T03:09:12.010Z,17.17
2018-06-13T03:11:41.958Z,17.20
2018-06-13T03:14:12.086Z,17.22
2018-06-13T03:16:41.120Z,17.19
2018-06-13T03:19:12.775Z,17.14
2018-06-13T03:21:59.379Z,17.11
2018-06-13T03:24:32.052Z,17.01
2018-06-13T03:27:02.854Z,16.97
2018-06-13T03:29:34.664Z,17.03
2018-06-13T03:32:26.483Z,17.09
2018-06-13T03:34:56.365Z,17.02
2018-06-13T03:37:29.761Z,17.09
2018-06-13T03:40:12.577Z,17.13
2018-06-13T03:42:42.796Z,17.04
2018-06-13T03:45:11.682Z,16.99
2018-06-13T03:47:40.054Z,17.07
2018-06-13T03:50:08.498Z,17.08
2018-06-13T03:52:37.842Z,17.07
2018-06-13T03:55:06.342Z,17.08
2018-06-13T03:57:44.878Z,17.08
2018-06-13T04:00:15.710Z,17.06
2018-06-13T04:02:46.102Z,17.05
2018-06-13T04:05:17.410Z,17.07
2018-06-13T04:10:19.744Z,17.07
2018-06-13T04:15:23.655Z,17.03
2018-06-13T04:17:52.090Z,17.01
2018-06-13T04:20:20.402Z,17.04
2018-06-13T04:22:48.794Z,16.98
2018-06-13T04:25:17.110Z,16.90
2018-06-13T04:27:45.547Z,16.83
2018-06-13T04:30:13.864Z,16.79
2018-06-13T04:32:42.205Z,16.79
2018-06-13T04:35:10.566Z,16.76
2018-06-13T04:37:39.787Z,16.74
2018-06-13T04:40:08.133Z,16.69
2018-06-13T04:42:36.504Z,16.70
2018-06-13T04:45:04.890Z,16.72
2018-06-13T04:47:33.178Z,16.67
2018-06-13T04:50:06.600Z,16.62
2018-06-13T04:52:34.924Z,16.66
2018-06-13T04:55:03.849Z,16.66
2018-06-13T04:57:32.138Z,16.67
2018-06-13T05:00:09.902Z,16.69
2018-06-13T05:02:38.205Z,16.66
2018-06-13T05:05:06.784Z,16.65
2018-06-13T05:07:35.145Z,16.58
2018-06-13T05:10:13.010Z,16.59
2018-06-13T05:12:41.319Z,16.54
2018-06-13T05:15:09.620Z,16.60
2018-06-13T05:17:37.958Z,16.59
2018-06-13T05:20:11.453Z,16.61
2018-06-13T05:22:39.766Z,16.59
2018-06-13T05:25:08.052Z,16.60
2018-06-13T05:27:37.333Z,16.60
2018-06-13T05:30:10.857Z,16.55
2018-06-13T05:32:39.204Z,16.52
2018-06-13T05:35:07.687Z,16.49
2018-06-13T05:37:35.985Z,16.51
2018-06-13T05:40:04.433Z,16.50
2018-06-13T05:42:33.031Z,16.55
2018-06-13T05:45:01.363Z,16.57
2018-06-13T05:47:29.643Z,16.59
2018-06-13T05:49:58.178Z,16.53
2018-06-13T05:52:27.629Z,16.51
2018-06-13T05:54:56.096Z,16.51
2018-06-13T05:57:24.362Z,16.55
2018-06-13T05:59:52.711Z,16.57
2018-06-13T06:02:21.042Z,16.57
2018-06-13T06:04:49.438Z,16.63
2018-06-13T06:07:17.717Z,16.67
2018-06-13T06:09:46.084Z,16.69
2018-06-13T06:12:14.398Z,16.68
2018-06-13T06:14:43.818Z,16.69
2018-06-13T06:17:12.123Z,16.72
2018-06-13T06:19:40.456Z,16.79
2018-06-13T06:22:08.866Z,16.76
2018-06-13T06:24:37.280Z,16.80
2018-06-13T06:27:06.962Z,16.84
2018-06-13T06:29:35.432Z,16.83
2018-06-13T06:32:08.920Z,16.87
2018-06-13T06:34:37.308Z,16.91
2018-06-13T06:37:05.630Z,16.97
2018-06-13T06:39:34.008Z,17.01
2018-06-13T06:42:02.517Z,17.01
2018-06-13T06:44:30.816Z,17.01
2018-06-13T06:46:59.278Z,17.00
2018-06-13T06:49:27.559Z,17.04
2018-06-13T06:51:55.974Z,17.07
2018-06-13T06:54:24.359Z,17.08
2018-06-13T06:56:52.698Z,17.10
2018-06-13T06:59:21.014Z,17.12
2018-06-13T07:01:49.706Z,17.13
2018-06-13T07:04:18.160Z,17.16
2018-06-13T07:06:46.582Z,17.21
2018-06-13T07:09:14.939Z,17.26
2018-06-13T07:11:43.392Z,17.36
2018-06-13T07:14:11.719Z,17.43
2018-06-13T07:16:40.686Z,17.51
2018-06-13T07:19:09.063Z,17.56
2018-06-13T07:21:46.956Z,17.56
2018-06-13T07:24:15.314Z,17.58
2018-06-13T07:26:43.789Z,17.61
2018-06-13T07:29:12.180Z,17.59
2018-06-13T07:31:50.028Z,17.54
2018-06-13T07:34:18.438Z,17.52
2018-06-13T07:36:46.831Z,17.50
2018-06-13T07:39:15.194Z,17.51
2018-06-13T07:41:43.606Z,17.54
2018-06-13T07:44:12.025Z,17.50
2018-06-13T07:46:40.449Z,17.52
2018-06-13T07:49:08.903Z,17.54
2018-06-13T07:51:37.396Z,17.46
2018-06-13T07:54:05.816Z,17.42
2018-06-13T07:56:35.409Z,17.40
2018-06-13T07:59:06.746Z,17.41
2018-06-13T08:01:36.247Z,17.41
2018-06-13T08:04:04.551Z,17.49
2018-06-13T08:06:32.904Z,17.55
2018-06-13T08:09:01.307Z,17.57
2018-06-13T08:11:34.756Z,17.58
2018-06-13T08:14:03.082Z,17.57
2018-06-13T08:16:31.540Z,17.57
2018-06-13T08:19:00.023Z,17.54
2018-06-13T08:21:28.414Z,17.50
2018-06-13T08:23:56.777Z,17.40
2018-06-13T08:26:25.260Z,17.32
2018-06-13T08:28:53.597Z,17.31
2018-06-13T08:31:21.954Z,17.37
2018-06-13T08:33:50.377Z,17.40
2018-06-13T08:36:18.684Z,17.51
2018-06-13T08:38:47.084Z,17.59
2018-06-13T08:44:22.833Z,17.87
2018-06-13T08:46:51.374Z,17.96
2018-06-13T08:49:20.674Z,17.97
2018-06-13T08:54:42.246Z,17.92
2018-06-13T08:57:11.036Z,17.89
2018-06-13T08:59:40.632Z,17.82
2018-06-13T09:04:51.372Z,17.71
2018-06-13T09:07:21.497Z,17.70
2018-06-13T09:09:50.440Z,17.71
2018-06-13T09:12:24.384Z,17.73
2018-06-13T09:14:53.514Z,17.78
2018-06-13T09:17:23.888Z,17.86
2018-06-13T09:19:52.608Z,17.88
2018-06-13T09:22:21.485Z,17.96
2018-06-13T09:24:50.217Z,18.00
2018-06-13T09:27:19.012Z,18.07
2018-06-13T09:29:47.686Z,18.07
2018-06-13T09:32:30.266Z,18.07
2018-06-13T09:34:59.294Z,18.15
2018-06-13T09:37:28.425Z,18.19
2018-06-13T09:39:58.240Z,18.20
2018-06-13T09:42:28.506Z,18.22
2018-06-13T09:44:57.228Z,18.24
2018-06-13T09:47:26.790Z,18.28
2018-06-13T09:49:56.870Z,18.31
2018-06-13T09:52:33.808Z,18.35
2018-06-13T09:55:02.666Z,18.32
2018-06-13T09:57:31.903Z,18.29
2018-06-13T10:00:05.904Z,18.26
2018-06-13T10:02:36.572Z,18.24
2018-06-13T10:05:06.644Z,18.27
2018-06-13T10:07:35.454Z,18.33
2018-06-13T10:10:22.798Z,18.44
2018-06-13T10:12:51.856Z,18.59
2018-06-13T10:15:24.746Z,18.65
2018-06-13T10:17:55.224Z,18.64
2018-06-13T10:20:25.584Z,18.64
2018-06-13T10:22:56.250Z,18.61
2018-06-13T10:25:25.991Z,18.64
2018-06-13T10:27:55.628Z,18.60
2018-06-13T10:30:24.645Z,18.52
2018-06-13T10:32:53.936Z,18.45
2018-06-13T10:35:22.642Z,18.31
2018-06-13T10:37:51.581Z,18.24
2018-06-13T10:40:21.238Z,18.18
2018-06-13T10:42:50.362Z,18.11
2018-06-13T10:45:20.057Z,18.04
2018-06-13T10:47:48.897Z,17.98
2018-06-13T10:50:17.504Z,17.88
2018-06-13T10:52:47.436Z,17.80
2018-06-13T10:55:16.259Z,17.76
2018-06-13T10:57:44.884Z,17.69
2018-06-13T11:00:15.080Z,17.61
2018-06-13T11:02:44.140Z,17.54
2018-06-13T11:05:13.002Z,17.56
2018-06-13T11:07:42.138Z,17.52
2018-06-13T11:13:09.171Z,17.46
2018-06-13T11:15:37.849Z,17.46
2018-06-13T11:18:06.190Z,17.46
2018-06-13T11:20:34.916Z,17.43
2018-06-13T11:23:03.220Z,17.45
2018-06-13T11:25:31.635Z,17.35
2018-06-13T11:28:01.233Z,17.32
2018-06-13T11:30:29.993Z,17.21
2018-06-13T11:32:58.353Z,17.16
2018-06-13T11:35:26.763Z,17.19
2018-06-13T11:37:55.752Z,17.23
2018-06-13T11:40:24.230Z,17.31
2018-06-13T11:42:53.050Z,17.35
2018-06-13T11:45:22.160Z,17.43
2018-06-13T11:47:50.658Z,17.53
2018-06-13T11:56:20.688Z,17.63
2018-06-13T11:58:49.628Z,17.56
2018-06-13T12:04:11.195Z,17.30
2018-06-13T12:06:39.670Z,17.15
2018-06-13T12:09:25.465Z,17.00
2018-06-13T12:12:03.329Z,16.91
2018-06-13T12:14:32.106Z,16.81
2018-06-13T12:17:01.876Z,16.83
2018-06-13T12:19:30.824Z,16.84
2018-06-13T12:21:59.705Z,16.75
2018-06-13T12:24:28.980Z,16.72
2018-06-13T12:26:57.791Z,16.69
2018-06-13T12:29:26.260Z,16.72
2018-06-13T12:31:54.721Z,16.74
2018-06-13T12:34:23.382Z,16.73
2018-06-13T12:36:52.299Z,16.65
2018-06-13T12:39:21.028Z,16.67
2018-06-13T12:41:54.767Z,16.68
2018-06-13T12:44:25.867Z,16.72
2018-06-13T12:46:54.769Z,16.74
2018-06-13T12:55:30.494Z,16.91
2018-06-13T12:57:59.486Z,16.92
2018-06-13T13:00:28.308Z,16.88
2018-06-13T13:02:56.716Z,16.80
2018-06-13T13:05:25.686Z,16.76
2018-06-13T13:07:54.264Z,16.76
2018-06-13T13:13:29.593Z,16.82
2018-06-13T13:15:58.400Z,16.80
2018-06-13T13:18:26.827Z,16.81
2018-06-13T13:21:04.895Z,16.80
2018-06-13T13:23:33.791Z,16.78
2018-06-13T13:26:02.203Z,16.85
2018-06-13T13:28:30.936Z,16.86
2018-06-13T13:30:59.503Z,16.91
2018-06-13T13:33:28.755Z,16.97
2018-06-13T13:35:57.280Z,17.00
2018-06-13T13:38:26.413Z,16.99
2018-06-13T13:40:55.171Z,17.00
2018-06-13T13:43:24.213Z,17.02
2018-06-13T13:45:52.976Z,17.04
2018-06-13T13:48:22.038Z,16.99
2018-06-13T13:50:50.613Z,16.97
2018-06-13T13:53:19.296Z,16.93
2018-06-13T13:55:48.251Z,17.00
2018-06-13T13:58:17.929Z,16.96
2018-06-13T14:06:54.449Z,16.98
2018-06-13T14:09:25.742Z,17.00
2018-06-13T14:11:59.716Z,17.00
2018-06-13T14:14:29.251Z,16.99
2018-06-13T14:16:58.277Z,17.02
2018-06-13T14:19:27.216Z,17.02
2018-06-13T14:21:55.917Z,17.05
2018-06-13T14:24:24.643Z,17.00
2018-06-13T14:26:53.903Z,16.97
2018-06-13T14:29:32.603Z,17.00
2018-06-13T14:32:24.094Z,16.98
2018-06-13T14:34:52.837Z,16.96
2018-06-13T14:37:22.674Z,16.99
2018-06-13T14:39:51.675Z,17.05
2018-06-13T14:45:27.859Z,17.05
2018-06-13T14:47:56.648Z,17.05
2018-06-13T14:50:26.503Z,17.00
2018-06-13T14:52:55.120Z,17.03
2018-06-13T14:55:24.190Z,17.07
2018-06-13T14:57:52.869Z,17.12
2018-06-13T15:00:26.622Z,17.13
2018-06-13T15:02:55.204Z,17.16
2018-06-13T15:05:23.764Z,17.14
2018-06-13T15:07:52.382Z,17.13
2018-06-13T15:10:26.446Z,17.13
2018-06-13T15:12:54.982Z,17.17
2018-06-13T15:15:23.386Z,17.13
2018-06-13T15:17:53.364Z,17.19
2018-06-13T15:20:21.899Z,17.19
2018-06-13T15:22:50.339Z,17.21
2018-06-13T15:25:18.869Z,17.23
2018-06-13T15:27:47.750Z,17.23
2018-06-13T15:30:25.875Z,17.28
2018-06-13T15:32:54.390Z,17.29
2018-06-13T15:35:22.982Z,17.35
2018-06-13T15:37:51.543Z,17.34
2018-06-13T15:40:20.273Z,17.28
2018-06-13T15:42:48.678Z,17.26
2018-06-13T15:45:17.949Z,17.25
2018-06-13T15:47:46.560Z,17.28
2018-06-13T15:50:20.059Z,17.29
2018-06-13T15:52:48.708Z,17.33
2018-06-13T15:55:17.363Z,17.31
2018-06-13T15:57:46.030Z,17.28
2018-06-13T16:00:14.630Z,17.26
2018-06-13T16:02:43.412Z,17.25
2018-06-13T16:05:12.267Z,17.21
2018-06-13T16:07:40.755Z,17.22
2018-06-13T16:10:09.526Z,17.20
2018-06-13T16:12:37.938Z,17.19
2018-06-13T16:15:06.354Z,17.18
2018-06-13T16:17:34.746Z,17.20
2018-06-13T16:20:03.234Z,17.19
2018-06-13T16:22:31.748Z,17.21
2018-06-13T16:25:00.080Z,17.25
2018-06-13T16:27:28.698Z,17.29
2018-06-13T16:29:57.305Z,17.28
2018-06-13T16:32:30.934Z,17.28
2018-06-13T16:34:59.473Z,17.30
2018-06-13T16:37:28.392Z,17.32
2018-06-13T16:39:56.923Z,17.25
2018-06-13T16:42:48.162Z,17.21
2018-06-13T16:45:16.511Z,17.20
2018-06-13T16:47:44.874Z,17.18
2018-06-13T16:50:24.505Z,17.17
2018-06-13T16:53:05.885Z,17.13
2018-06-13T16:55:34.633Z,17.06
2018-06-13T16:58:02.992Z,16.98
2018-06-13T17:00:31.590Z,16.95
2018-06-13T17:03:00.114Z,16.94
2018-06-13T17:05:28.565Z,16.94
2018-06-13T17:07:57.028Z,16.93
2018-06-13T17:10:25.546Z,16.91
2018-06-13T17:12:54.085Z,17.00
2018-06-13T17:15:22.748Z,17.01
2018-06-13T17:17:51.333Z,16.97
2018-06-13T17:20:29.292Z,16.94
2018-06-13T17:22:57.761Z,16.94
2018-06-13T17:25:26.240Z,16.96
2018-06-13T17:27:54.700Z,16.97
2018-06-13T17:30:23.414Z,16.97
2018-06-13T17:32:52.075Z,16.99
2018-06-13T17:35:21.014Z,16.99
2018-06-13T17:37:49.547Z,16.99
2018-06-13T17:40:18.909Z,16.99
2018-06-13T17:42:47.254Z,16.99
2018-06-13T17:45:15.825Z,16.95
2018-06-13T17:47:44.424Z,16.96
2018-06-13T17:50:13.030Z,16.97
2018-06-13T17:52:41.599Z,16.97
2018-06-13T17:55:10.306Z,16.94
2018-06-13T17:57:39.101Z,16.95
2018-06-13T18:00:07.557Z,16.97
2018-06-13T18:02:36.088Z,16.94
2018-06-13T18:05:04.668Z,16.94
2018-06-13T18:07:33.263Z,16.97
2018-06-13T18:10:01.823Z,16.97
2018-06-13T18:12:30.853Z,16.94
2018-06-13T18:14:59.458Z,16.95
2018-06-13T18:17:28.714Z,16.98
2018-06-13T18:19:57.464Z,16.95
2018-06-13T18:22:26.115Z,16.93
2018-06-13T18:24:54.636Z,16.93
2018-06-13T18:27:23.519Z,16.92
2018-06-13T18:29:52.054Z,16.86
2018-06-13T18:32:20.493Z,16.87
2018-06-13T18:34:49.529Z,16.89
2018-06-13T18:37:18.507Z,16.87
2018-06-13T18:39:47.658Z,16.85
2018-06-13T18:42:16.233Z,16.85
2018-06-13T18:44:44.992Z,16.87
2018-06-13T18:47:13.667Z,16.87
2018-06-13T18:49:42.473Z,16.88
2018-06-13T18:52:11.068Z,16.81
2018-06-13T18:54:42.159Z,16.81
2018-06-13T18:57:10.906Z,16.84
2018-06-13T18:59:39.759Z,16.84
2018-06-13T19:02:08.400Z,16.81
2018-06-13T19:04:37.649Z,16.81
2018-06-13T19:07:06.740Z,16.78
2018-06-13T19:09:35.708Z,16.77
2018-06-13T19:12:09.375Z,16.75
2018-06-13T19:14:37.779Z,16.74
2018-06-13T19:17:06.514Z,16.72
2018-06-13T19:19:35.185Z,16.76
2018-06-13T19:22:03.688Z,16.81
2018-06-13T19:24:32.219Z,16.80
2018-06-13T19:27:01.486Z,16.76
2018-06-13T19:29:30.383Z,16.74
2018-06-13T19:32:04.187Z,16.77
2018-06-13T19:34:32.924Z,16.73
2018-06-13T19:37:01.524Z,16.75
2018-06-13T19:39:30.334Z,16.78
2018-06-13T19:45:10.056Z,16.71
2018-06-13T19:47:43.778Z,16.71
2018-06-13T19:50:12.431Z,16.71
2018-06-13T19:52:46.288Z,16.68
2018-06-13T19:55:20.278Z,16.69
2018-06-13T19:57:48.909Z,16.66
2018-06-13T20:00:17.718Z,16.65
2018-06-13T20:02:51.954Z,16.64
2018-06-13T20:05:27.053Z,16.63
2018-06-13T20:07:57.095Z,16.64
2018-06-13T20:10:25.849Z,16.66
2018-06-13T20:12:59.694Z,16.64
2018-06-13T20:15:33.564Z,16.61
2018-06-13T20:18:07.251Z,16.58
2018-06-13T20:20:40.834Z,16.62
2018-06-13T20:23:09.354Z,16.63
2018-06-13T20:25:43.216Z,16.63
2018-06-13T20:28:17.340Z,16.62
2018-06-13T20:31:26.128Z,16.65
2018-06-13T20:33:54.706Z,16.65
2018-06-13T20:36:23.424Z,16.64
2018-06-13T20:38:52.178Z,16.63
2018-06-13T20:41:20.711Z,16.62
2018-06-13T20:43:49.292Z,16.55
2018-06-13T20:46:17.800Z,16.55
2018-06-13T20:48:46.414Z,16.54
2018-06-13T20:51:15.384Z,16.50
2018-06-13T20:53:43.975Z,16.49
2018-06-13T20:56:12.440Z,16.48
2018-06-13T20:58:41.370Z,16.47
2018-06-13T21:01:09.792Z,16.49
2018-06-13T21:03:38.236Z,16.54
2018-06-13T21:06:07.100Z,16.55
2018-06-13T21:08:35.430Z,16.55
2018-06-13T21:11:13.278Z,16.57
2018-06-13T21:13:41.668Z,16.56
2018-06-13T21:16:10.214Z,16.56
2018-06-13T21:18:38.721Z,16.54
2018-06-13T21:21:16.644Z,16.55
2018-06-13T21:23:45.310Z,16.54
2018-06-13T21:26:13.734Z,16.51
2018-06-13T21:28:42.157Z,16.52
2018-06-13T21:31:10.682Z,16.54
2018-06-13T21:33:39.188Z,16.51
2018-06-13T21:36:07.716Z,16.51
2018-06-13T21:38:36.061Z,16.51
2018-06-13T21:46:50.966Z,16.53
2018-06-13T21:49:19.444Z,16.51
2018-06-13T21:51:47.826Z,16.50
2018-06-13T21:54:16.324Z,16.50
2018-06-13T21:56:44.783Z,16.51
2018-06-13T21:59:13.118Z,16.50
2018-06-13T22:01:41.666Z,16.48
2018-06-13T22:04:10.090Z,16.48
2018-06-13T22:06:38.566Z,16.44
2018-06-13T22:09:08.855Z,16.46
2018-06-13T22:11:42.781Z,16.43
2018-06-13T22:14:12.029Z,16.42
2018-06-13T22:16:40.463Z,16.44
2018-06-13T22:19:08.854Z,16.44
2018-06-13T22:21:50.953Z,16.45
2018-06-13T22:24:19.264Z,16.45
2018-06-13T22:26:47.577Z,16.44
2018-06-13T22:29:17.600Z,16.43
2018-06-13T22:31:46.459Z,16.44
2018-06-13T22:34:16.244Z,16.44
2018-06-13T22:36:45.684Z,16.43
2018-06-13T22:39:14.202Z,16.42
2018-06-13T22:41:43.005Z,16.43
2018-06-13T22:44:12.571Z,16.37
2018-06-13T22:46:42.043Z,16.39
2018-06-13T22:49:10.565Z,16.40
2018-06-13T22:51:57.687Z,16.43
2018-06-13T22:54:27.161Z,16.44
2018-06-13T22:56:56.244Z,16.45
2018-06-13T22:59:24.777Z,16.47
2018-06-13T23:01:53.401Z,16.46
2018-06-13T23:04:21.929Z,16.38
2018-06-13T23:06:50.887Z,16.37
2018-06-13T23:09:20.929Z,16.35
2018-06-13T23:11:52.369Z,16.33
2018-06-13T23:14:26.298Z,16.32
2018-06-13T23:16:55.154Z,16.30
2018-06-13T23:19:24.015Z,16.32
2018-06-13T23:21:54.859Z,16.32
2018-06-13T23:24:23.679Z,16.36
2018-06-13T23:26:52.402Z,16.31
2018-06-13T23:29:21.857Z,16.31
2018-06-13T23:31:50.425Z,16.31
2018-06-13T23:34:19.707Z,16.31
2018-06-13T23:36:48.320Z,16.29
2018-06-13T23:39:16.648Z,16.31
2018-06-13T23:41:45.905Z,16.32
2018-06-13T23:44:14.681Z,16.32
2018-06-13T23:46:44.089Z,16.31
2018-06-13T23:49:15.731Z,16.27
2018-06-13T23:51:57.828Z,16.26
2018-06-13T23:54:27.913Z,16.29
2018-06-13T23:56:57.258Z,16.26
2018-06-13T23:59:25.830Z,16.23
